This is the latest recevied weather packets stored in our database for station/object KE8AFF-13. If no packets are shown the sender has not sent any weather packets the latest 1 day(s).
| Time | Temp. | Humidity | Pressure | Rain* | Wind** | Luminosity | Snow |
|---|---|---|---|---|---|---|---|
| 1778014751 | 15° C | 97% | 1006.2 hPa | 0.51 mm | 0.89 m/s, 259° | 27 W/m² | - |
| 1778014449 | 15° C | 97% | 1006.5 hPa | 0.51 mm | 0.89 m/s, 279° | 34 W/m² | - |
| 1778014146 | 15° C | 96% | 1006.3 hPa | 0 mm | 0.89 m/s, 237° | 78 W/m² | - |
| 1778013843 | 15.56° C | 96% | 1006.6 hPa | 0 mm | 1.34 m/s, 7° | 116 W/m² | - |
| 1778013540 | 15.56° C | 96% | 1006.6 hPa | 0 mm | 0.45 m/s, 217° | 95 W/m² | - |
| 1778013236 | 15.56° C | 96% | 1006.8 hPa | 0 mm | 0.89 m/s, 245° | 82 W/m² | - |
| 1778012933 | 15.56° C | 96% | 1006.8 hPa | 0 mm | 0.89 m/s, 341° | 132 W/m² | - |
| 1778012629 | 15.56° C | 95% | 1006.8 hPa | 0 mm | 0.45 m/s, 342° | 116 W/m² | - |
| 1778012326 | 15.56° C | 96% | 1007.1 hPa | 0 mm | 0.89 m/s, 274° | 137 W/m² | - |
| 1778012023 | 15.56° C | 96% | 1007 hPa | 0 mm | 0.45 m/s, 241° | 90 W/m² | - |
| 1778011722 | 15° C | 96% | 1007.1 hPa | 0 mm | 0.45 m/s, 232° | 88 W/m² | - |
| 1778011418 | 15.56° C | 96% | 1007.3 hPa | 0 mm | 0.45 m/s, 275° | 33 W/m² | - |
| 1778011114 | 15.56° C | 96% | 1007.1 hPa | 0 mm | 0 m/s | 44 W/m² | - |
| 1778010811 | 15.56° C | 96% | 1007.2 hPa | 0 mm | 0 m/s | 21 W/m² | - |
| 1778010508 | 15.56° C | 96% | 1007.3 hPa | 0 mm | 0.45 m/s, 259° | 32 W/m² | - |
| 1778010206 | 15.56° C | 95% | 1007.2 hPa | 0 mm | 0 m/s | 43 W/m² | - |
| 1778009901 | 15.56° C | 95% | 1007.1 hPa | 0 mm | 0.45 m/s, 309° | 30 W/m² | - |
| 1778009599 | 15.56° C | 95% | 1007.4 hPa | 0 mm | 0 m/s | 26 W/m² | - |
| 1778009296 | 15.56° C | 94% | 1007.2 hPa | 0 mm | 0 m/s | 35 W/m² | - |
| 1778008994 | 15.56° C | 94% | 1007.4 hPa | 0 mm | 0 m/s | 42 W/m² | - |
| 1778008692 | 15.56° C | 94% | 1007.6 hPa | 0.51 mm | 0 m/s | 52 W/m² | - |
| 1778008390 | 15.56° C | 93% | 1007.7 hPa | 1.27 mm | 0.89 m/s, 225° | 65 W/m² | - |
| 1778008086 | 16.11° C | 92% | 1007.5 hPa | 1.27 mm | 1.34 m/s, 293° | 93 W/m² | - |
| 1778007782 | 16.11° C | 91% | 1007.5 hPa | 0.51 mm | 0 m/s | 111 W/m² | - |
| 1778007478 | 16.11° C | 91% | 1007.5 hPa | 0 mm | 0.89 m/s, 263° | 133 W/m² | - |
* Rain latest hour (hover to see other rain measurements)
** Current wind speed in m/s (hover to see current wind gust speed)